This is the latest recevied weather packets stored in our database for station/object KC1OEK-13. If no packets are shown the sender has not sent any weather packets the latest 1 day(s).
| Time | Temp. | Humidity | Pressure | Rain* | Wind** | Luminosity | Snow |
|---|---|---|---|---|---|---|---|
| 1778028329 | 18.89° C | 64% | 1011.2 hPa | 0 mm | - | 0 W/m² | - |
| 1778028026 | 18.89° C | 63% | 1011 hPa | 0 mm | - | 0 W/m² | - |
| 1778027722 | 18.89° C | 63% | 1011 hPa | 0 mm | - | 0 W/m² | - |
| 1778027418 | 18.89° C | 64% | 1011 hPa | 0 mm | - | 0 W/m² | - |
| 1778026811 | 18.89° C | 63% | 1010.8 hPa | 0 mm | - | 0 W/m² | - |
| 1778026507 | 19.44° C | 62% | 1010.6 hPa | 0 mm | - | 0 W/m² | - |
| 1778025297 | 20° C | 60% | 1010.5 hPa | 0 mm | - | 2 W/m² | - |
| 1778023782 | 20.56° C | 59% | 1010.1 hPa | 0 mm | - | 12 W/m² | - |
| 1778023177 | 20.56° C | 59% | 1010 hPa | 0 mm | - | 24 W/m² | - |
| 1778022874 | 21.11° C | 58% | 1010 hPa | 0 mm | - | 33 W/m² | - |
| 1778022270 | 21.11° C | 56% | 1010 hPa | 0 mm | - | 49 W/m² | - |
| 1778021663 | 21.11° C | 57% | 1009.7 hPa | 0 mm | - | 56 W/m² | - |
| 1778021056 | 21.67° C | 56% | 1009.7 hPa | 0 mm | - | 55 W/m² | - |
| 1778020753 | 21.67° C | 55% | 1009.6 hPa | 0 mm | - | 80 W/m² | - |
| 1778020146 | 22.22° C | 55% | 1009.5 hPa | 0 mm | - | 106 W/m² | - |
| 1778019539 | 22.22° C | 56% | 1009.3 hPa | 0 mm | - | 70 W/m² | - |
| 1778018933 | 23.33° C | 54% | 1009.7 hPa | 0 mm | - | 79 W/m² | - |
| 1778018630 | 23.33° C | 52% | 1009.6 hPa | 0 mm | - | 136 W/m² | - |
| 1778014391 | 23.89° C | 50% | 1009.4 hPa | 0 mm | - | 274 W/m² | - |
| 1778013179 | 24.44° C | 49% | 1009.3 hPa | 0 mm | - | 398 W/m² | - |
| 1778012875 | 24.44° C | 49% | 1009.5 hPa | 0 mm | - | 333 W/m² | - |
| 1778011664 | 24.44° C | 50% | 1009.5 hPa | 0 mm | - | 407 W/m² | - |
| 1778010147 | 26.11° C | 46% | 1009.3 hPa | 0 mm | - | 541 W/m² | - |
| 1778009239 | 26.11° C | 45% | 1009.6 hPa | 0 mm | - | 583 W/m² | - |
| 1778008936 | 26.11° C | 47% | 1009.5 hPa | 0 mm | - | 552 W/m² | - |
* Rain latest hour (hover to see other rain measurements)
** Current wind speed in m/s (hover to see current wind gust speed)